Time;durP1;ratioP1;P1;durP2;ratioP2;P2;SDS_P1;SDS_P2;PMS_P1;PMS_P2;Temp;Humidity;BMP_temperature;BMP_pressure;BME280_temperature;BME280_humidity;BME280_pressure;Samples;Min_cycle;Max_cycle;Signal;HPM_P1;HPM_P2
2022/06/15 00:00:44;;;;;;;0.10;0.10;;;16.10;83.20;;;;;;5032433;28;20033;-73
2022/06/15 00:03:12;;;;;;;0.10;0.10;;;16.00;84.10;;;;;;5014612;28;20095;-72
2022/06/15 00:05:38;;;;;;;0.10;0.10;;;15.90;84.60;;;;;;5014630;28;20032;-72
2022/06/15 00:08:05;;;;;;;0.10;0.10;;;15.80;84.70;;;;;;5032078;28;20560;-71
2022/06/15 00:10:32;;;;;;;0.10;0.10;;;15.90;85.50;;;;;;5014516;28;20035;-71
2022/06/15 00:12:58;;;;;;;0.10;0.10;;;16.00;84.60;;;;;;5032149;28;20025;-72
2022/06/15 00:15:24;;;;;;;0.10;0.10;;;16.10;84.60;;;;;;5032132;28;20436;-72
2022/06/15 00:17:49;;;;;;;0.10;0.10;;;16.10;84.20;;;;;;5032084;28;20116;-72
2022/06/15 00:20:15;;;;;;;0.60;0.60;;;16.00;85.10;;;;;;5031566;28;20022;-72
2022/06/15 00:22:41;;;;;;;0.10;0.10;;;15.90;86.10;;;;;;5032184;28;20101;-72
2022/06/15 00:25:09;;;;;;;0.28;0.28;;;15.80;85.80;;;;;;5014395;28;20121;-72
2022/06/15 00:27:35;;;;;;;0.10;0.10;;;15.80;85.60;;;;;;5031917;28;20044;-72
2022/06/15 00:30:02;;;;;;;0.10;0.10;;;15.70;85.80;;;;;;5032077;28;20034;-71
2022/06/15 00:32:28;;;;;;;0.10;0.10;;;15.50;87.00;;;;;;5030906;28;20034;-71
2022/06/15 00:34:53;;;;;;;0.13;0.13;;;15.40;87.80;;;;;;5044376;22;20044;-76
2022/06/15 00:37:19;;;;;;;0.10;0.10;;;15.50;87.50;;;;;;5051889;28;20025;-76
2022/06/15 00:39:45;;;;;;;0.10;0.10;;;15.60;87.80;;;;;;5051813;28;20021;-75
2022/06/15 00:42:13;;;;;;;0.10;0.10;;;15.60;88.00;;;;;;5051881;28;20361;-76
2022/06/15 00:44:42;;;;;;;0.20;0.20;;;15.70;87.80;;;;;;5034003;28;20123;-76
2022/06/15 00:47:21;;;;;;;0.20;0.20;;;15.70;87.40;;;;;;5051813;28;20025;-76
2022/06/15 00:49:56;;;;;;;0.10;0.10;;;15.60;88.00;;;;;;5051795;28;20113;-76
2022/06/15 00:52:32;;;;;;;0.10;0.10;;;15.40;88.70;;;;;;5051723;28;20510;-76
2022/06/15 00:54:59;;;;;;;0.10;0.10;;;15.20;89.50;;;;;;5034047;28;20059;-75
2022/06/15 00:57:26;;;;;;;0.20;0.20;;;15.10;90.60;;;;;;5051703;28;20017;-76
2022/06/15 00:59:56;;;;;;;0.10;0.10;;;15.10;90.70;;;;;;5033944;28;20025;-76
2022/06/15 01:02:22;;;;;;;0.20;0.20;;;15.10;90.80;;;;;;5051699;28;20040;-75
2022/06/15 01:05:00;;;;;;;0.20;0.20;;;15.20;90.90;;;;;;5033790;28;20036;-76
2022/06/15 01:07:50;;;;;;;0.10;0.10;;;15.10;91.30;;;;;;5033714;28;20538;-76
2022/06/15 01:10:46;;;;;;;0.30;0.30;;;15.10;91.70;;;;;;5051574;28;20029;-76
2022/06/15 01:13:17;;;;;;;0.10;0.10;;;15.10;91.80;;;;;;5051510;28;20033;-76
2022/06/15 01:15:50;;;;;;;0.10;0.10;;;15.20;92.60;;;;;;5051599;28;20025;-76
2022/06/15 01:18:49;;;;;;;0.10;0.10;;;15.20;91.90;;;;;;5033658;28;20392;-76
2022/06/15 01:21:21;;;;;;;0.10;0.10;;;15.40;92.70;;;;;;5019968;28;20510;-76
2022/06/15 01:24:12;;;;;;;0.10;0.10;;;15.50;92.60;;;;;;5033679;28;20101;-76
2022/06/15 01:27:02;;;;;;;0.10;0.10;;;15.40;91.90;;;;;;5051424;28;20112;-76
2022/06/15 01:30:04;;;;;;;0.20;0.20;;;15.40;92.00;;;;;;5051415;28;20036;-76
2022/06/15 01:32:38;;;;;;;0.10;0.10;;;15.40;92.50;;;;;;5053659;28;20029;-76
2022/06/15 01:35:29;;;;;;;0.10;0.10;;;15.30;92.40;;;;;;5055124;28;20041;-76
2022/06/15 01:38:21;;;;;;;0.10;0.10;;;15.20;93.10;;;;;;5037311;28;20436;-76
2022/06/15 01:41:17;;;;;;;0.10;0.10;;;15.10;93.50;;;;;;5037244;28;20096;-76
2022/06/15 01:43:54;;;;;;;0.08;0.08;;;15.20;93.90;;;;;;5053402;28;20031;-75
2022/06/15 01:46:21;;;;;;;0.20;0.20;;;15.30;93.70;;;;;;5054960;28;20032;-76
2022/06/15 01:48:49;;;;;;;0.10;0.10;;;15.30;94.00;;;;;;5054896;28;20423;-76
2022/06/15 01:51:20;;;;;;;0.20;0.20;;;15.40;94.50;;;;;;5054810;28;20060;-76
2022/06/15 01:53:59;;;;;;;0.10;0.10;;;15.30;95.00;;;;;;5054830;28;20040;-76
2022/06/15 01:56:31;;;;;;;0.10;0.10;;;15.30;95.00;;;;;;5020293;28;20021;-76
2022/06/15 01:59:22;;;;;;;0.13;0.13;;;15.30;95.20;;;;;;5054626;28;20496;-76
2022/06/15 02:02:12;;;;;;;0.20;0.20;;;15.30;96.30;;;;;;5054795;28;20029;-76
2022/06/15 02:04:53;;;;;;;0.10;0.10;;;15.30;95.90;;;;;;5054527;28;20020;-76
2022/06/15 02:07:35;;;;;;;0.52;0.52;;;15.30;97.20;;;;;;5054652;28;20029;-76
2022/06/15 02:10:08;;;;;;;0.20;0.20;;;15.30;97.10;;;;;;5020034;28;20052;-76
2022/06/15 02:12:41;;;;;;;0.10;0.10;;;15.30;97.70;;;;;;5019972;28;20480;-76
2022/06/15 02:15:10;;;;;;;0.10;0.10;;;15.50;97.60;;;;;;5036527;28;20032;-75
2022/06/15 02:17:41;;;;;;;0.10;0.10;;;15.40;97.20;;;;;;5054351;28;20021;-76
2022/06/15 02:20:13;;;;;;;0.10;0.10;;;15.30;98.30;;;;;;5054232;28;20499;-75
2022/06/15 02:22:42;;;;;;;0.10;0.10;;;15.30;98.10;;;;;;5036473;28;20028;-76
2022/06/15 02:25:13;;;;;;;0.13;0.13;;;15.30;98.50;;;;;;5054072;28;20029;-76
2022/06/15 02:27:41;;;;;;;0.00;0.00;;;15.50;98.10;;;;;;5036456;28;20082;-76
2022/06/15 02:30:14;;;;;;;0.08;0.08;;;15.40;98.00;;;;;;5053988;28;20057;-76
2022/06/15 02:32:46;;;;;;;0.10;0.10;;;15.60;99.00;;;;;;5053992;28;20072;-76
2022/06/15 02:35:14;;;;;;;;;;;15.50;97.90;;;;;;5036318;28;20067;-76
2022/06/15 02:37:40;;;;;;;0.10;0.10;;;15.40;98.40;;;;;;5036084;28;19916;-76
2022/06/15 02:40:07;;;;;;;0.20;0.20;;;15.30;98.80;;;;;;5019374;28;20032;-76
2022/06/15 02:42:36;;;;;;;0.10;0.10;;;15.30;98.30;;;;;;5053801;28;20100;-76
2022/06/15 02:45:17;;;;;;;0.10;0.10;;;15.20;98.70;;;;;;5053154;28;20547;-75
2022/06/15 02:47:43;;;;;;;0.30;0.30;;;14.90;99.60;;;;;;5036114;28;20100;-76
2022/06/15 02:50:11;;;;;;;0.10;0.10;;;14.80;99.90;;;;;;5035663;28;20632;-77
2022/06/15 02:52:49;;;;;;;0.20;0.20;;;14.60;99.90;;;;;;5053578;28;20484;-75
2022/06/15 02:55:18;;;;;;;0.10;0.10;;;14.60;99.90;;;;;;5035881;28;20021;-76
2022/06/15 02:57:48;;;;;;;0.10;0.10;;;14.60;99.90;;;;;;5053569;28;20422;-75
2022/06/15 03:00:16;;;;;;;0.10;0.10;;;14.60;99.90;;;;;;5053372;28;20017;-75
2022/06/15 03:02:42;;;;;;;0.10;0.10;;;14.60;99.90;;;;;;5053426;28;20051;-75
2022/06/15 03:05:08;;;;;;;0.10;0.10;;;14.60;99.90;;;;;;5035506;28;20025;-76
2022/06/15 03:07:34;;;;;;;0.10;0.10;;;14.50;99.90;;;;;;5035544;28;20099;-75
2022/06/15 03:10:00;;;;;;;0.10;0.10;;;14.40;99.90;;;;;;5053180;28;20033;-75
2022/06/15 03:12:25;;;;;;;0.30;0.30;;;14.40;99.90;;;;;;5053245;28;20025;-76
2022/06/15 03:14:51;;;;;;;0.10;0.10;;;14.40;99.90;;;;;;5053145;28;20519;-76
2022/06/15 03:17:17;;;;;;;0.10;0.10;;;14.50;99.90;;;;;;5053050;28;20025;-76
2022/06/15 03:19:43;;;;;;;0.10;0.10;;;14.60;99.90;;;;;;5053006;28;20033;-75
2022/06/15 03:22:09;;;;;;;0.10;0.10;;;14.90;99.90;;;;;;5052964;28;20025;-76
2022/06/15 03:24:35;;;;;;;0.10;0.10;;;15.00;99.90;;;;;;5053031;28;20096;-76
2022/06/15 03:27:00;;;;;;;0.10;0.10;;;15.00;99.90;;;;;;5053038;28;20044;-76
2022/06/15 03:29:27;;;;;;;0.13;0.13;;;14.90;99.90;;;;;;5052879;28;20492;-76
2022/06/15 03:31:53;;;;;;;0.17;0.17;;;14.80;99.90;;;;;;5034919;28;20384;-76
2022/06/15 03:34:19;;;;;;;0.10;0.10;;;14.70;99.90;;;;;;5034974;28;20036;-76
2022/06/15 03:36:44;;;;;;;0.20;0.20;;;14.50;99.90;;;;;;5034924;28;20032;-75
2022/06/15 03:39:10;;;;;;;0.10;0.10;;;14.30;99.90;;;;;;5052658;28;20500;-76
2022/06/15 03:41:36;;;;;;;0.10;0.10;;;14.40;99.90;;;;;;5052590;28;20052;-76
2022/06/15 03:44:02;;;;;;;0.10;0.10;;;14.50;99.90;;;;;;5052615;28;20029;-76
2022/06/15 03:46:29;;;;;;;0.20;0.20;;;14.80;99.90;;;;;;5052616;28;20102;-76
2022/06/15 03:48:54;;;;;;;0.13;0.13;;;15.00;99.90;;;;;;5034617;28;20032;-76
2022/06/15 03:51:21;;;;;;;0.10;0.10;;;14.80;99.90;;;;;;5052418;28;20021;-75
2022/06/15 03:53:47;;;;;;;0.20;0.20;;;14.80;99.90;;;;;;5034897;28;20033;-76
2022/06/15 03:56:13;;;;;;;0.10;0.10;;;14.80;99.90;;;;;;5051467;28;20020;-76
2022/06/15 03:58:38;;;;;;;0.10;0.10;;;15.00;99.90;;;;;;5034387;28;20025;-76
2022/06/15 04:01:04;;;;;;;0.10;0.10;;;15.10;99.90;;;;;;5052356;28;20028;-76
2022/06/15 04:03:30;;;;;;;0.10;0.10;;;15.20;99.90;;;;;;5034528;28;20083;-76
2022/06/15 04:05:58;;;;;;;0.10;0.10;;;15.50;99.90;;;;;;5052466;28;20043;-76
2022/06/15 04:08:40;;;;;;;0.10;0.10;;;15.40;99.90;;;;;;5052129;28;20036;-76
2022/06/15 04:11:58;;;;;;;0.10;0.10;;;15.50;99.90;;;;;;5052185;28;20025;-76
2022/06/15 04:13:58;;;;;;;0.10;0.10;;;15.70;99.90;;;;;;5052110;28;20017;-76
2022/06/15 04:16:24;;;;;;;0.10;0.10;;;15.80;99.90;;;;;;5034280;28;20025;-76
2022/06/15 04:18:50;;;;;;;0.10;0.10;;;15.80;99.90;;;;;;5052066;28;20480;-76
2022/06/15 04:21:16;;;;;;;0.10;0.10;;;15.90;99.90;;;;;;5052088;28;20021;-76
2022/06/15 04:23:41;;;;;;;0.10;0.10;;;15.90;99.90;;;;;;5034090;28;20428;-76
2022/06/15 04:26:09;;;;;;;0.20;0.20;;;16.00;99.90;;;;;;5052102;28;20021;-76
2022/06/15 04:28:38;;;;;;;0.10;0.10;;;16.10;99.90;;;;;;5052013;28;20252;-75
2022/06/15 04:31:04;;;;;;;0.10;0.10;;;16.20;99.90;;;;;;5034032;28;20017;-75
2022/06/15 04:33:30;;;;;;;0.10;0.10;;;16.00;99.90;;;;;;5051816;28;20036;-75
2022/06/15 04:35:56;;;;;;;0.30;0.30;;;16.10;99.90;;;;;;5052036;28;20029;-75
2022/06/15 04:38:22;;;;;;;0.17;0.17;;;16.10;99.90;;;;;;5034087;28;20031;-76
2022/06/15 04:40:47;;;;;;;0.82;0.68;;;15.90;99.90;;;;;;5051959;28;20383;-75
2022/06/15 04:43:13;;;;;;;0.17;0.17;;;15.60;99.90;;;;;;5051777;28;20108;-75
2022/06/15 04:45:39;;;;;;;9.63;8.07;;;15.40;99.90;;;;;;5051727;28;20032;-75
2022/06/15 04:48:05;;;;;;;0.40;0.40;;;15.20;99.90;;;;;;5033881;28;20508;-76
2022/06/15 04:50:32;;;;;;;0.10;0.10;;;15.10;99.90;;;;;;5034048;28;20029;-75
2022/06/15 04:52:58;;;;;;;0.10;0.10;;;15.10;99.90;;;;;;5051980;28;20524;-76
2022/06/15 04:55:24;;;;;;;1.55;0.52;;;15.30;99.90;;;;;;5051747;28;20045;-76
2022/06/15 04:57:54;;;;;;;0.30;0.30;;;15.30;99.90;;;;;;5033960;28;20031;-76
2022/06/15 05:00:23;;;;;;;0.10;0.10;;;15.30;99.90;;;;;;5051187;28;20391;-75
2022/06/15 05:02:49;;;;;;;0.10;0.10;;;15.50;99.90;;;;;;5033358;28;20029;-75
2022/06/15 05:05:15;;;;;;;0.10;0.10;;;15.60;99.90;;;;;;5051634;28;20032;-76
2022/06/15 05:07:41;;;;;;;0.52;0.40;;;15.80;99.90;;;;;;5054325;28;20380;-75
2022/06/15 05:10:13;;;;;;;0.10;0.10;;;16.00;99.90;;;;;;5037573;28;20017;-76
2022/06/15 05:12:39;;;;;;;0.57;0.38;;;16.20;99.90;;;;;;5055461;28;20503;-75
2022/06/15 05:15:05;;;;;;;0.10;0.10;;;16.20;99.90;;;;;;5054966;28;20029;-76
2022/06/15 05:17:32;;;;;;;0.10;0.10;;;16.20;99.90;;;;;;5055346;28;20522;-75
2022/06/15 05:19:57;;;;;;;0.10;0.10;;;16.20;99.90;;;;;;5054946;28;20171;-75
2022/06/15 05:22:23;;;;;;;0.75;0.75;;;16.40;99.90;;;;;;5055083;28;20107;-75
2022/06/15 05:24:49;;;;;;;0.10;0.10;;;16.40;99.90;;;;;;5053311;28;20035;-75
2022/06/15 05:27:15;;;;;;;0.10;0.10;;;16.50;99.90;;;;;;5055032;28;20056;-75
2022/06/15 05:29:40;;;;;;;0.10;0.10;;;16.40;99.90;;;;;;5054898;28;20021;-75
2022/06/15 05:32:07;;;;;;;0.08;0.08;;;16.60;99.90;;;;;;5055001;28;20112;-75
2022/06/15 05:34:34;;;;;;;0.10;0.10;;;16.80;99.90;;;;;;5035814;28;20082;-75
2022/06/15 05:37:00;;;;;;;0.32;0.28;;;16.90;99.90;;;;;;5054818;28;20057;-75
2022/06/15 05:39:26;;;;;;;0.10;0.10;;;16.80;99.90;;;;;;5045576;28;20060;-75
2022/06/15 05:41:52;;;;;;;0.10;0.10;;;16.90;99.90;;;;;;5054842;28;20025;-73
2022/06/15 05:44:31;;;;;;;0.25;0.25;;;16.90;99.90;;;;;;5054317;28;20104;-73
2022/06/15 05:46:59;;;;;;;0.93;0.85;;;17.00;99.90;;;;;;5053317;28;20017;-74
2022/06/15 05:49:25;;;;;;;0.10;0.10;;;17.10;99.90;;;;;;5054271;28;20365;-74
2022/06/15 05:51:51;;;;;;;0.10;0.10;;;17.30;99.90;;;;;;5054595;28;20036;-73
2022/06/15 05:54:17;;;;;;;0.10;0.10;;;17.60;99.90;;;;;;5036758;28;20028;-74
2022/06/15 05:56:43;;;;;;;0.10;0.10;;;17.90;99.90;;;;;;5036335;28;20028;-73
2022/06/15 05:59:08;;;;;;;0.10;0.10;;;18.30;99.90;;;;;;5036526;28;20435;-74
2022/06/15 06:01:37;;;;;;;0.10;0.10;;;18.50;99.90;;;;;;5036403;28;20032;-74
2022/06/15 06:04:04;;;;;;;0.00;0.00;;;18.70;99.90;;;;;;5036543;28;20017;-73
2022/06/15 06:06:31;;;;;;;0.00;0.00;;;18.90;99.90;;;;;;5036272;28;20408;-74
2022/06/15 06:08:58;;;;;;;0.10;0.10;;;19.10;99.90;;;;;;5036134;28;20025;-74
2022/06/15 06:11:24;;;;;;;0.00;0.00;;;19.10;99.90;;;;;;5054149;28;20021;-74
2022/06/15 06:13:50;;;;;;;0.10;0.10;;;19.20;99.90;;;;;;5054261;28;20036;-74
2022/06/15 06:16:16;;;;;;;0.10;0.10;;;19.30;99.90;;;;;;5053999;28;20035;-74
2022/06/15 06:18:42;;;;;;;0.10;0.10;;;19.40;99.90;;;;;;5034753;28;20451;-74
2022/06/15 06:21:08;;;;;;;0.10;0.10;;;19.30;99.90;;;;;;5044021;28;20112;-74
2022/06/15 06:23:35;;;;;;;0.17;0.17;;;19.20;99.90;;;;;;5052563;28;20055;-74
2022/06/15 06:26:01;;;;;;;0.10;0.10;;;19.10;99.90;;;;;;5052528;28;20021;-74
2022/06/15 06:28:31;;;;;;;0.20;0.20;;;19.00;99.90;;;;;;5052527;28;20104;-74
2022/06/15 06:30:59;;;;;;;0.10;0.10;;;19.10;99.90;;;;;;5053877;28;20029;-74
2022/06/15 06:33:26;;;;;;;0.10;0.10;;;19.00;99.90;;;;;;5053744;28;20057;-74
2022/06/15 06:35:54;;;;;;;0.10;0.10;;;19.00;99.90;;;;;;5053699;28;20033;-74
2022/06/15 06:38:21;;;;;;;0.00;0.00;;;19.00;99.90;;;;;;5035701;28;20028;-74
2022/06/15 06:40:49;;;;;;;0.10;0.10;;;19.10;99.90;;;;;;5035642;28;20029;-74
2022/06/15 06:43:15;;;;;;;0.10;0.10;;;19.40;99.90;;;;;;5053533;28;20499;-74
2022/06/15 06:45:42;;;;;;;0.10;0.10;;;19.60;99.90;;;;;;5053589;28;20029;-74
2022/06/15 06:48:08;;;;;;;0.10;0.10;;;19.80;99.90;;;;;;5035675;28;20036;-74
2022/06/15 06:50:36;;;;;;;0.00;0.00;;;20.00;99.90;;;;;;5053227;28;20055;-74
2022/06/15 06:53:10;;;;;;;0.10;0.10;;;20.20;99.90;;;;;;5057285;22;20047;-91
2022/06/15 06:56:10;;;;;;;0.10;0.10;;;20.40;99.90;;;;;;5019437;28;20029;-91
2022/06/15 06:59:12;;;;;;;;;;;;;;;;;;;;;
2022/06/15 07:01:58;;;;;;;;;;;20.90;98.90;;;;;;5062082;22;20452;-74
2022/06/15 07:04:24;;;;;;;0.00;0.00;;;21.10;97.20;;;;;;5052439;28;19947;-74
2022/06/15 07:06:50;;;;;;;0.00;0.00;;;21.20;98.20;;;;;;5053172;28;20029;-76
2022/06/15 07:09:16;;;;;;;0.03;0.03;;;21.30;97.60;;;;;;5033248;28;20510;-74
2022/06/15 07:11:44;;;;;;;0.17;0.10;;;21.30;98.10;;;;;;5035695;28;20028;-74
2022/06/15 07:14:10;;;;;;;0.10;0.10;;;21.50;96.90;;;;;;5000000;28;20139;-74
2022/06/15 07:16:36;;;;;;;0.57;0.57;;;21.60;95.60;;;;;;5013724;28;20109;-74
2022/06/15 07:19:01;;;;;;;0.00;0.00;;;21.60;95.30;;;;;;5041760;28;20352;-74
2022/06/15 07:21:28;;;;;;;0.00;0.00;;;21.70;95.90;;;;;;5041198;28;20542;-74
2022/06/15 07:23:56;;;;;;;0.08;0.08;;;21.90;95.20;;;;;;5029819;28;20083;-75
2022/06/15 07:26:29;;;;;;;0.35;0.35;;;22.00;95.00;;;;;;5029145;28;20053;-74
2022/06/15 07:28:55;;;;;;;0.10;0.10;;;22.20;94.00;;;;;;5032066;28;20420;-75
2022/06/15 07:31:34;;;;;;;0.00;0.00;;;22.30;94.10;;;;;;5040630;28;20037;-74
2022/06/15 07:34:00;;;;;;;0.10;0.10;;;22.40;94.10;;;;;;5041204;28;20508;-74
2022/06/15 07:36:26;;;;;;;2.67;2.15;;;22.50;93.80;;;;;;5041349;28;20748;-75
2022/06/15 07:38:54;;;;;;;0.00;0.00;;;22.70;93.80;;;;;;5041373;28;20117;-74
2022/06/15 07:41:21;;;;;;;0.00;0.00;;;22.80;93.90;;;;;;5041334;28;20035;-75
2022/06/15 07:43:47;;;;;;;0.00;0.00;;;22.90;92.70;;;;;;5041989;28;20453;-75
2022/06/15 07:46:13;;;;;;;0.20;0.20;;;23.00;92.80;;;;;;5029844;28;20029;-75
2022/06/15 07:51:35;;;;;;;0.25;0.25;;;23.10;92.90;;;;;;5040289;28;20041;-74
2022/06/15 07:54:05;;;;;;;0.03;0.03;;;23.30;92.10;;;;;;5041612;28;20033;-74
2022/06/15 07:56:32;;;;;;;0.00;0.00;;;23.60;91.90;;;;;;5028960;28;20029;-74
2022/06/15 07:58:58;;;;;;;0.00;0.00;;;23.60;91.30;;;;;;5031004;28;20036;-74
2022/06/15 08:01:24;;;;;;;0.00;0.00;;;23.60;91.30;;;;;;5041874;28;20147;-75
2022/06/15 08:03:51;;;;;;;0.65;0.65;;;23.80;91.80;;;;;;5041917;28;20054;-74
2022/06/15 08:06:17;;;;;;;0.00;0.00;;;24.00;91.20;;;;;;5041631;28;20033;-75
2022/06/15 08:08:43;;;;;;;0.00;0.00;;;24.00;90.60;;;;;;5031523;28;20037;-75
2022/06/15 08:11:10;;;;;;;0.00;0.00;;;24.10;90.30;;;;;;5041875;28;20033;-75
2022/06/15 08:13:36;;;;;;;0.00;0.00;;;24.20;89.80;;;;;;5040362;28;20044;-75
2022/06/15 08:16:02;;;;;;;0.00;0.00;;;24.40;88.40;;;;;;5041202;28;20033;-75
2022/06/15 08:18:31;;;;;;;0.00;0.00;;;24.60;88.20;;;;;;5040324;28;20075;-75
2022/06/15 08:21:02;;;;;;;1.55;1.02;;;24.70;86.80;;;;;;5040398;28;20111;-75
2022/06/15 08:23:31;;;;;;;0.25;0.25;;;24.70;85.10;;;;;;5030302;28;20032;-74
2022/06/15 08:26:00;;;;;;;0.63;0.63;;;24.80;85.50;;;;;;5031478;28;20037;-75
2022/06/15 08:28:32;;;;;;;0.00;0.00;;;25.10;84.70;;;;;;5028348;28;20400;-74
2022/06/15 08:30:57;;;;;;;;;;;25.30;83.40;;;;;;5041536;28;20504;-75
2022/06/15 08:33:24;;;;;;;0.00;0.00;;;25.30;84.00;;;;;;5040651;28;19962;-74
2022/06/15 08:35:51;;;;;;;0.10;0.10;;;25.40;82.60;;;;;;5029040;28;20476;-75
2022/06/15 08:38:19;;;;;;;0.70;0.40;;;25.40;81.40;;;;;;5029072;28;20080;-73
2022/06/15 08:40:45;;;;;;;0.17;0.10;;;25.40;81.00;;;;;;5040487;28;20096;-73
2022/06/15 08:43:24;;;;;;;0.15;0.15;;;25.50;80.60;;;;;;5013189;28;20112;-76
2022/06/15 08:45:56;;;;;;;0.25;0.17;;;25.70;80.10;;;;;;5044192;28;20099;-76
2022/06/15 08:48:34;;;;;;;0.00;0.00;;;25.70;78.50;;;;;;5043199;28;20120;-76
2022/06/15 08:51:18;;;;;;;0.00;0.00;;;25.80;80.10;;;;;;5035167;28;20380;-76
2022/06/15 08:53:58;;;;;;;1.75;0.75;;;26.00;78.20;;;;;;5037161;28;20025;-76
2022/06/15 08:56:36;;;;;;;0.30;0.30;;;26.00;77.40;;;;;;5033687;28;20476;-76
2022/06/15 08:59:06;;;;;;;0.00;0.00;;;26.10;78.20;;;;;;5033408;28;20451;-74
2022/06/15 09:01:42;;;;;;;0.00;0.00;;;26.20;77.40;;;;;;5042829;28;20029;-73
2022/06/15 09:04:20;;;;;;;0.00;0.00;;;26.50;76.20;;;;;;5043525;28;20084;-74
2022/06/15 09:07:13;;;;;;;0.30;0.20;;;26.80;74.90;;;;;;5043467;28;20064;-74
2022/06/15 09:10:04;;;;;;;0.00;0.00;;;26.50;74.10;;;;;;5044039;28;20369;-74
2022/06/15 09:12:59;;;;;;;0.20;0.20;;;26.60;74.30;;;;;;5042909;28;20033;-74
2022/06/15 09:15:52;;;;;;;0.08;0.08;;;27.00;73.80;;;;;;5044073;28;20468;-74
2022/06/15 09:18:28;;;;;;;0.00;0.00;;;27.30;71.10;;;;;;5032280;28;20235;-74
2022/06/15 09:21:04;;;;;;;0.08;0.08;;;27.30;71.50;;;;;;5043628;28;20108;-74
2022/06/15 09:23:33;;;;;;;0.32;0.28;;;27.60;70.30;;;;;;5043066;28;20045;-74
2022/06/15 09:26:09;;;;;;;0.98;0.68;;;27.70;69.20;;;;;;5042844;28;20033;-74
2022/06/15 09:28:43;;;;;;;0.10;0.10;;;27.50;67.60;;;;;;5043138;28;20508;-74
2022/06/15 09:31:20;;;;;;;0.47;0.47;;;27.60;69.90;;;;;;5043453;28;20021;-74
2022/06/15 09:33:52;;;;;;;0.00;0.00;;;27.90;67.00;;;;;;5041652;28;20051;-74
2022/06/15 09:36:22;;;;;;;9.20;0.47;;;28.00;67.80;;;;;;5032661;28;20500;-74
2022/06/15 09:38:48;;;;;;;0.00;0.00;;;28.20;65.60;;;;;;5042173;28;20029;-74
2022/06/15 09:41:25;;;;;;;0.08;0.08;;;28.50;64.90;;;;;;5034386;28;20040;-74
2022/06/15 09:44:03;;;;;;;0.20;0.20;;;28.50;63.60;;;;;;5042718;28;20088;-74
2022/06/15 09:46:47;;;;;;;0.10;0.10;;;28.50;63.90;;;;;;5029005;28;20098;-74
2022/06/15 09:49:31;;;;;;;0.00;0.00;;;27.90;64.30;;;;;;5042318;28;20045;-74
2022/06/15 09:52:04;;;;;;;0.65;0.50;;;27.90;65.20;;;;;;5043099;28;20133;-74
2022/06/15 09:54:42;;;;;;;0.00;0.00;;;28.10;64.20;;;;;;5041620;28;20033;-74
2022/06/15 09:57:09;;;;;;;0.00;0.00;;;28.40;65.20;;;;;;5042487;28;20029;-74
2022/06/15 09:59:35;;;;;;;0.70;0.43;;;28.70;64.70;;;;;;5033606;28;20044;-74
2022/06/15 10:02:13;;;;;;;0.40;0.38;;;28.80;64.50;;;;;;5032809;28;20049;-73
2022/06/15 10:04:39;;;;;;;0.35;0.10;;;29.00;63.40;;;;;;5031511;28;20041;-73
2022/06/15 10:07:13;;;;;;;0.38;0.38;;;28.60;62.40;;;;;;5042606;28;20037;-73
2022/06/15 10:09:46;;;;;;;0.32;0.32;;;28.70;63.00;;;;;;5041369;28;20033;-73
2022/06/15 10:15:20;;;;;;;0.00;0.00;;;29.00;62.00;;;;;;5042278;28;20064;-73
2022/06/15 10:17:50;;;;;;;0.20;0.20;;;28.90;62.60;;;;;;5042140;28;20489;-73
2022/06/15 10:20:37;;;;;;;0.08;0.08;;;29.30;61.80;;;;;;5041689;28;20094;-73
2022/06/15 10:23:16;;;;;;;0.00;0.00;;;29.00;62.30;;;;;;5041401;28;20103;-74
2022/06/15 10:25:52;;;;;;;1.23;0.85;;;29.00;62.50;;;;;;5012365;28;20554;-75
2022/06/15 10:28:30;;;;;;;0.00;0.00;;;29.50;60.60;;;;;;5041870;28;20036;-74
2022/06/15 10:30:59;;;;;;;0.10;0.10;;;29.80;61.30;;;;;;5042561;28;20029;-74
2022/06/15 10:33:37;;;;;;;0.00;0.00;;;30.20;60.00;;;;;;5042717;28;20036;-74
2022/06/15 10:36:15;;;;;;;0.17;0.17;;;30.30;59.40;;;;;;5042658;28;20032;-74
2022/06/15 10:38:44;;;;;;;0.08;0.08;;;30.40;57.80;;;;;;5041070;28;20060;-74
2022/06/15 10:43:54;;;;;;;0.00;0.00;;;30.50;57.40;;;;;;5040506;28;20041;-74
2022/06/15 10:46:21;;;;;;;0.00;0.00;;;31.00;57.10;;;;;;5042121;28;20029;-74
2022/06/15 10:48:52;;;;;;;0.55;0.10;;;31.20;56.30;;;;;;5042518;28;20032;-74
2022/06/15 10:51:38;;;;;;;0.05;0.05;;;31.30;55.90;;;;;;5041902;28;20628;-74
2022/06/15 11:02:06;;;;;;;0.00;0.00;;;31.00;56.40;;;;;;5041935;28;20123;-72
2022/06/15 11:03:23;;;;;;;0.55;0.43;;;30.60;57.50;;;;;;5041473;28;20110;-74
2022/06/15 11:05:52;;;;;;;0.00;0.00;;;30.60;56.30;;;;;;5041027;28;20044;-74
2022/06/15 11:08:29;;;;;;;0.00;0.00;;;30.50;54.00;;;;;;5041357;28;20621;-74
2022/06/15 11:11:20;;;;;;;0.15;0.15;;;30.40;51.80;;;;;;5041775;28;20033;-74
2022/06/15 11:14:04;;;;;;;0.10;0.10;;;30.50;52.90;;;;;;5041317;28;21445;-74
2022/06/15 11:19:50;;;;;;;0.15;0.15;;;30.80;52.50;;;;;;5002930;28;20504;-75
2022/06/15 11:22:17;;;;;;;0.00;0.00;;;31.20;52.40;;;;;;5041454;28;20037;-74
2022/06/15 11:24:54;;;;;;;0.00;0.00;;;31.80;50.60;;;;;;5040574;28;20090;-71
2022/06/15 11:27:29;;;;;;;0.08;0.08;;;31.90;49.40;;;;;;5042062;28;20032;-71
2022/06/15 11:30:00;;;;;;;0.32;0.32;;;32.00;49.50;;;;;;5040003;28;20033;-75
2022/06/15 11:32:41;;;;;;;0.00;0.00;;;32.20;47.50;;;;;;5041960;28;20035;-74
2022/06/15 11:35:13;;;;;;;0.20;0.15;;;31.40;45.90;;;;;;5041490;28;20423;-74
2022/06/15 11:38:12;;;;;;;2.63;0.43;;;31.30;46.20;;;;;;5041315;28;20025;-75
2022/06/15 11:40:53;;;;;;;5.68;1.80;;;31.40;47.40;;;;;;5041077;28;20036;-74
2022/06/15 11:43:28;;;;;;;0.47;0.22;;;31.30;47.10;;;;;;5041743;28;20491;-74
2022/06/15 11:46:29;;;;;;;2.25;0.77;;;31.60;46.90;;;;;;5030803;28;20040;-74
2022/06/15 11:49:30;;;;;;;0.00;0.00;;;31.20;47.00;;;;;;5041312;28;20029;-74
2022/06/15 11:51:58;;;;;;;0.00;0.00;;;31.20;46.10;;;;;;5028891;28;20037;-74
2022/06/15 11:54:48;;;;;;;0.80;0.80;;;31.20;47.60;;;;;;5041040;28;20033;-74
2022/06/15 11:57:47;;;;;;;0.00;0.00;;;31.30;47.40;;;;;;5039042;28;20107;-74
2022/06/15 12:00:21;;;;;;;0.10;0.10;;;31.30;47.90;;;;;;5038655;28;20056;-75
2022/06/15 12:03:07;;;;;;;0.63;0.60;;;31.30;47.90;;;;;;5040528;28;20432;-75
2022/06/15 12:06:02;;;;;;;0.10;0.10;;;31.10;47.70;;;;;;5011957;28;20039;-75
2022/06/15 12:08:41;;;;;;;0.00;0.00;;;31.10;47.30;;;;;;5041372;28;20036;-75
2022/06/15 12:14:46;;;;;;;0.70;0.60;;;30.60;48.00;;;;;;5041525;28;20123;-75
2022/06/15 12:17:34;;;;;;;0.00;0.00;;;30.70;48.20;;;;;;5029501;28;20032;-75
2022/06/15 12:20:37;;;;;;;0.15;0.15;;;30.40;47.50;;;;;;5040093;28;20389;-75
2022/06/15 12:23:17;;;;;;;0.10;0.10;;;30.50;48.20;;;;;;5029413;28;20025;-75
2022/06/15 12:26:02;;;;;;;0.90;0.70;;;30.50;47.10;;;;;;5040553;28;20091;-75
2022/06/15 12:28:33;;;;;;;0.20;0.20;;;30.60;47.50;;;;;;5030660;28;20164;-75
2022/06/15 12:31:17;;;;;;;0.00;0.00;;;30.20;47.60;;;;;;5040840;28;20104;-75
2022/06/15 12:34:02;;;;;;;0.55;0.43;;;30.00;49.00;;;;;;5040617;28;20044;-76
2022/06/15 12:36:50;;;;;;;0.25;0.08;;;29.90;49.50;;;;;;5040565;28;20056;-75
2022/06/15 12:39:34;;;;;;;0.00;0.00;;;30.00;49.30;;;;;;5032258;28;20033;-75
2022/06/15 12:42:09;;;;;;;0.00;0.00;;;29.90;49.50;;;;;;5040755;28;20037;-75
2022/06/15 12:44:40;;;;;;;0.20;0.20;;;30.10;49.60;;;;;;5041073;28;20539;-75
2022/06/15 12:47:12;;;;;;;0.00;0.00;;;30.20;49.20;;;;;;5040041;28;20536;-75
2022/06/15 12:49:44;;;;;;;0.00;0.00;;;30.20;49.40;;;;;;5041380;28;20024;-75
2022/06/15 12:52:33;;;;;;;0.40;0.32;;;30.30;49.50;;;;;;5041137;28;20145;-75
2022/06/15 12:54:59;;;;;;;0.00;0.00;;;29.90;50.10;;;;;;5031385;28;20395;-76
2022/06/15 12:57:50;;;;;;;1.00;0.20;;;29.60;49.80;;;;;;5030286;28;20431;-75
2022/06/15 13:00:23;;;;;;;0.15;0.15;;;29.50;49.80;;;;;;5041422;28;20037;-75
2022/06/15 13:03:06;;;;;;;0.00;0.00;;;29.60;51.20;;;;;;5031271;28;20103;-75
2022/06/15 13:05:35;;;;;;;0.50;0.43;;;29.80;51.80;;;;;;5041137;28;20041;-75
2022/06/15 13:08:25;;;;;;;0.10;0.10;;;29.70;49.80;;;;;;5041089;28;20381;-75
2022/06/15 13:10:53;;;;;;;0.00;0.00;;;29.50;50.70;;;;;;5042170;28;20033;-75
2022/06/15 13:13:30;;;;;;;0.00;0.00;;;29.10;51.30;;;;;;5040844;28;20041;-75
2022/06/15 13:16:12;;;;;;;1.05;0.75;;;29.30;50.90;;;;;;5042241;28;20029;-73
2022/06/15 13:18:50;;;;;;;0.00;0.00;;;29.70;50.90;;;;;;5031314;28;20035;-75
2022/06/15 13:21:24;;;;;;;4.57;1.65;;;29.90;51.10;;;;;;5031407;28;20124;-75
2022/06/15 13:24:03;;;;;;;0.57;0.45;;;29.50;49.30;;;;;;5041443;28;20037;-75
2022/06/15 13:26:38;;;;;;;0.32;0.32;;;29.40;48.30;;;;;;5033156;28;20490;-75
2022/06/15 13:29:07;;;;;;;0.55;0.45;;;29.50;48.10;;;;;;5043491;28;20104;-75
2022/06/15 13:31:45;;;;;;;0.77;0.50;;;28.90;47.70;;;;;;5044992;28;20036;-75
2022/06/15 13:34:32;;;;;;;0.00;0.00;;;28.90;48.80;;;;;;5016860;28;20552;-75
2022/06/15 13:37:15;;;;;;;0.60;0.60;;;29.00;49.20;;;;;;5042715;28;20391;-75